Time;durP1;ratioP1;P1;durP2;ratioP2;P2;SDS_P1;SDS_P2;PMS_P1;PMS_P2;Temp;Humidity;BMP_temperature;BMP_pressure;BME280_temperature;BME280_humidity;BME280_pressure;Samples;Min_cycle;Max_cycle;Signal;HPM_P1;HPM_P2
2023/03/25 00:02:18;;;;;;;1.57;1.47;;;;;;;;;;4998737;28;20243;-54
2023/03/25 00:04:44;;;;;;;1.50;1.40;;;;;;;;;;4997628;28;20269;-54
2023/03/25 00:07:10;;;;;;;1.87;1.53;;;;;;;;;;4998782;28;20630;-54
2023/03/25 00:09:36;;;;;;;1.40;1.30;;;;;;;;;;5000780;28;20638;-54
2023/03/25 00:12:02;;;;;;;2.63;1.73;;;;;;;;;;4997587;28;21780;-54
2023/03/25 00:14:28;;;;;;;1.43;1.33;;;;;;;;;;4998290;28;20178;-54
2023/03/25 00:16:54;;;;;;;2.40;1.60;;;;;;;;;;4998580;28;20190;-55
2023/03/25 00:19:20;;;;;;;1.63;1.53;;;;;;;;;;4998217;28;20237;-54
2023/03/25 00:21:49;;;;;;;1.60;1.50;;;;;;;;;;4996347;28;20238;-54
2023/03/25 00:24:16;;;;;;;1.90;1.70;;;;;;;;;;4998057;28;20672;-55
2023/03/25 00:26:43;;;;;;;1.87;1.40;;;;;;;;;;4998899;28;20651;-54
2023/03/25 00:29:09;;;;;;;2.37;1.50;;;;;;;;;;4999552;28;20185;-54
2023/03/25 00:31:35;;;;;;;1.43;1.33;;;;;;;;;;4998189;28;20202;-55
2023/03/25 00:34:01;;;;;;;1.50;1.33;;;;;;;;;;4994238;28;20733;-54
2023/03/25 00:36:27;;;;;;;1.87;1.23;;;;;;;;;;4997184;28;20890;-54
2023/03/25 00:38:53;;;;;;;1.93;1.60;;;;;;;;;;4997219;28;20181;-54
2023/03/25 00:41:21;;;;;;;2.20;1.30;;;;;;;;;;5000865;28;20190;-54
2023/03/25 00:43:48;;;;;;;2.20;1.60;;;;;;;;;;4998747;28;20596;-54
2023/03/25 00:46:15;;;;;;;1.50;1.40;;;;;;;;;;4997280;28;20186;-54
2023/03/25 00:48:42;;;;;;;1.53;1.30;;;;;;;;;;4997762;28;20237;-54
2023/03/25 00:51:08;;;;;;;3.50;1.70;;;;;;;;;;4998624;28;20217;-54
2023/03/25 00:53:35;;;;;;;1.80;1.70;;;;;;;;;;4999731;28;20178;-54
2023/03/25 00:56:01;;;;;;;3.13;1.37;;;;;;;;;;5002946;28;20178;-54
2023/03/25 00:58:28;;;;;;;2.30;1.70;;;;;;;;;;5003546;28;20449;-54
2023/03/25 01:00:55;;;;;;;1.57;1.47;;;;;;;;;;5005727;28;20262;-54
2023/03/25 01:03:22;;;;;;;2.90;1.53;;;;;;;;;;5001689;28;20657;-54
2023/03/25 01:05:49;;;;;;;2.83;1.67;;;;;;;;;;5000724;28;20546;-54
2023/03/25 01:08:16;;;;;;;1.50;1.40;;;;;;;;;;5002771;28;20638;-54
2023/03/25 01:10:42;;;;;;;1.80;1.70;;;;;;;;;;5001181;28;20213;-55
2023/03/25 01:13:09;;;;;;;3.93;1.70;;;;;;;;;;5002954;28;20189;-54
2023/03/25 01:15:35;;;;;;;3.30;1.50;;;;;;;;;;5001940;28;20634;-54
2023/03/25 01:18:01;;;;;;;1.70;1.60;;;;;;;;;;4998737;28;20174;-54
2023/03/25 01:20:27;;;;;;;1.77;1.67;;;;;;;;;;4997126;28;20738;-55
2023/03/25 01:22:53;;;;;;;2.50;1.60;;;;;;;;;;5001717;28;20658;-54
2023/03/25 01:25:19;;;;;;;1.83;1.60;;;;;;;;;;5001195;28;20187;-54
2023/03/25 01:27:46;;;;;;;3.70;1.80;;;;;;;;;;5003318;28;20190;-54
2023/03/25 01:30:12;;;;;;;1.87;1.67;;;;;;;;;;5003024;28;20237;-54
2023/03/25 01:32:38;;;;;;;1.50;1.40;;;;;;;;;;5000071;28;20308;-54
2023/03/25 01:35:05;;;;;;;4.70;1.73;;;;;;;;;;5001695;28;20198;-54
2023/03/25 01:37:32;;;;;;;1.57;1.47;;;;;;;;;;4998436;28;20626;-54
2023/03/25 01:39:59;;;;;;;1.60;1.50;;;;;;;;;;5002307;28;20182;-54
2023/03/25 01:42:25;;;;;;;1.50;1.40;;;;;;;;;;5002088;28;20262;-54
2023/03/25 01:44:51;;;;;;;1.60;1.50;;;;;;;;;;5000948;28;20262;-54
2023/03/25 01:47:17;;;;;;;1.40;1.30;;;;;;;;;;4997192;28;20215;-54
2023/03/25 01:49:44;;;;;;;2.23;1.90;;;;;;;;;;5000969;28;20368;-54
2023/03/25 01:52:18;;;;;;;2.30;1.63;;;;;;;;;;4999027;28;20194;-54
2023/03/25 01:54:45;;;;;;;2.17;1.60;;;;;;;;;;5001318;28;20361;-54
2023/03/25 01:57:12;;;;;;;1.77;1.27;;;;;;;;;;5001642;28;20554;-54
2023/03/25 01:59:39;;;;;;;1.80;1.43;;;;;;;;;;5001187;28;20178;-55
2023/03/25 02:02:07;;;;;;;3.47;2.00;;;;;;;;;;5000489;28;20186;-54
2023/03/25 02:04:37;;;;;;;1.93;1.67;;;;;;;;;;4999911;28;20194;-54
2023/03/25 02:07:07;;;;;;;1.60;1.50;;;;;;;;;;5001643;28;20174;-54
2023/03/25 02:09:33;;;;;;;3.37;1.60;;;;;;;;;;5000064;28;20187;-54
2023/03/25 02:11:59;;;;;;;2.97;2.57;;;;;;;;;;4999957;28;20210;-54
2023/03/25 02:14:28;;;;;;;1.60;1.50;;;;;;;;;;5002164;28;20178;-54
2023/03/25 02:17:12;;;;;;;2.53;1.70;;;;;;;;;;5002419;28;20277;-54
2023/03/25 02:19:39;;;;;;;2.87;1.70;;;;;;;;;;4999995;28;20190;-54
2023/03/25 02:22:16;;;;;;;3.03;1.30;;;;;;;;;;4998014;28;20322;-54
2023/03/25 02:24:52;;;;;;;2.10;1.50;;;;;;;;;;4999328;28;20650;-54
2023/03/25 02:27:26;;;;;;;3.53;1.57;;;;;;;;;;5001653;28;20269;-54
2023/03/25 02:29:52;;;;;;;2.83;1.70;;;;;;;;;;4999478;28;20173;-54
2023/03/25 02:32:31;;;;;;;1.53;1.43;;;;;;;;;;4996156;28;20206;-54
2023/03/25 02:34:57;;;;;;;3.23;1.30;;;;;;;;;;4996659;28;20186;-54
2023/03/25 02:37:45;;;;;;;2.97;1.47;;;;;;;;;;5000999;28;20179;-54
2023/03/25 02:40:16;;;;;;;2.13;1.40;;;;;;;;;;4999589;28;20170;-54
2023/03/25 02:42:42;;;;;;;1.63;1.47;;;;;;;;;;4998360;28;20182;-54
2023/03/25 02:45:12;;;;;;;3.17;1.70;;;;;;;;;;4999189;28;20191;-54
2023/03/25 02:47:42;;;;;;;3.03;2.00;;;;;;;;;;5001067;28;20190;-54
2023/03/25 02:50:14;;;;;;;1.60;1.50;;;;;;;;;;5001217;28;20269;-54
2023/03/25 02:52:44;;;;;;;2.00;1.50;;;;;;;;;;4997951;28;20312;-54
2023/03/25 02:55:11;;;;;;;1.53;1.20;;;;;;;;;;4999082;28;20672;-54
2023/03/25 02:57:39;;;;;;;1.63;1.40;;;;;;;;;;5005902;28;20181;-54
2023/03/25 03:00:09;;;;;;;2.10;1.50;;;;;;;;;;5002545;28;20296;-54
2023/03/25 03:02:36;;;;;;;1.60;1.37;;;;;;;;;;4998316;28;20186;-55
2023/03/25 03:05:02;;;;;;;3.90;1.70;;;;;;;;;;5000139;28;20197;-54
2023/03/25 03:07:30;;;;;;;1.50;1.30;;;;;;;;;;4999584;28;20689;-54
2023/03/25 03:10:04;;;;;;;2.23;1.40;;;;;;;;;;5002744;28;20206;-54
2023/03/25 03:12:36;;;;;;;2.67;1.50;;;;;;;;;;4998039;28;20221;-54
2023/03/25 03:15:05;;;;;;;2.20;1.60;;;;;;;;;;5001925;28;20166;-54
2023/03/25 03:17:59;;;;;;;1.50;1.40;;;;;;;;;;4999755;28;20171;-54
2023/03/25 03:20:38;;;;;;;4.07;1.53;;;;;;;;;;5000219;28;20757;-54
2023/03/25 03:23:09;;;;;;;2.00;1.80;;;;;;;;;;4999802;28;20829;-54
2023/03/25 03:25:56;;;;;;;1.87;1.60;;;;;;;;;;5010735;28;20535;-54
2023/03/25 03:28:25;;;;;;;1.77;1.67;;;;;;;;;;4997914;28;20221;-54
2023/03/25 03:30:54;;;;;;;1.60;1.50;;;;;;;;;;5002724;28;20214;-54
2023/03/25 03:33:24;;;;;;;1.07;1.07;;;;;;;;;;4999194;28;20170;-54
2023/03/25 03:36:16;;;;;;;2.90;1.30;;;;;;;;;;4997404;28;20233;-54
2023/03/25 03:38:46;;;;;;;2.13;1.73;;;;;;;;;;4996886;28;20191;-54
2023/03/25 03:41:16;;;;;;;1.93;1.40;;;;;;;;;;4999864;28;20226;-54
2023/03/25 03:44:03;;;;;;;1.57;1.47;;;;;;;;;;4997315;28;21052;-55
2023/03/25 03:46:35;;;;;;;1.53;1.43;;;;;;;;;;5000078;28;20182;-54
2023/03/25 03:49:02;;;;;;;1.70;1.43;;;;;;;;;;4999941;28;20649;-54
2023/03/25 03:51:34;;;;;;;2.40;1.50;;;;;;;;;;4998852;28;20198;-54
2023/03/25 03:54:00;;;;;;;3.23;1.97;;;;;;;;;;5000179;28;20866;-54
2023/03/25 03:56:45;;;;;;;2.80;1.50;;;;;;;;;;4997871;28;20183;-54
2023/03/25 03:59:14;;;;;;;4.07;1.77;;;;;;;;;;4999401;28;20653;-54
2023/03/25 04:01:44;;;;;;;3.47;1.70;;;;;;;;;;5000475;28;20183;-54
2023/03/25 04:04:11;;;;;;;2.00;1.50;;;;;;;;;;4999244;28;20175;-54
2023/03/25 04:06:40;;;;;;;2.33;1.57;;;;;;;;;;5000065;28;20179;-54
2023/03/25 04:09:26;;;;;;;3.10;2.07;;;;;;;;;;4999058;28;20198;-55
2023/03/25 04:12:05;;;;;;;1.40;1.30;;;;;;;;;;4995500;28;20229;-54
2023/03/25 04:14:31;;;;;;;1.60;1.50;;;;;;;;;;4999270;28;20718;-54
2023/03/25 04:16:58;;;;;;;4.97;4.57;;;;;;;;;;4997901;28;20177;-54
2023/03/25 04:19:25;;;;;;;1.73;1.40;;;;;;;;;;4998661;28;20182;-54
2023/03/25 04:21:51;;;;;;;3.50;1.70;;;;;;;;;;4996838;28;20250;-55
2023/03/25 04:24:18;;;;;;;1.67;1.57;;;;;;;;;;4997427;28;22385;-54
2023/03/25 04:26:44;;;;;;;2.10;1.60;;;;;;;;;;5000048;28;20181;-54
2023/03/25 04:29:12;;;;;;;2.17;1.60;;;;;;;;;;5003116;28;20190;-54
2023/03/25 04:31:44;;;;;;;5.80;5.33;;;;;;;;;;5006367;28;20261;-54
2023/03/25 04:34:12;;;;;;;3.03;1.80;;;;;;;;;;5000205;28;20217;-55
2023/03/25 04:36:41;;;;;;;1.80;1.53;;;;;;;;;;5002611;28;20186;-56
2023/03/25 04:39:08;;;;;;;1.43;1.33;;;;;;;;;;5002640;28;22477;-55
2023/03/25 04:41:34;;;;;;;2.67;1.53;;;;;;;;;;4999901;28;20187;-54
2023/03/25 04:44:00;;;;;;;2.60;2.00;;;;;;;;;;5001159;28;20187;-55
2023/03/25 04:46:26;;;;;;;2.20;1.40;;;;;;;;;;5000998;28;20209;-55
2023/03/25 04:48:52;;;;;;;2.03;1.60;;;;;;;;;;5002004;28;20194;-55
2023/03/25 04:51:19;;;;;;;2.50;1.43;;;;;;;;;;5000911;28;20686;-54
2023/03/25 04:53:45;;;;;;;1.73;1.57;;;;;;;;;;5003120;28;20581;-55
2023/03/25 04:56:17;;;;;;;2.37;1.63;;;;;;;;;;5001200;28;20265;-54
2023/03/25 04:58:44;;;;;;;1.80;1.53;;;;;;;;;;5001161;28;20179;-54
2023/03/25 05:01:16;;;;;;;3.90;3.40;;;;;;;;;;5001534;28;20236;-54
2023/03/25 05:03:42;;;;;;;2.93;2.30;;;;;;;;;;4999153;28;20182;-55
2023/03/25 05:06:08;;;;;;;4.90;1.90;;;;;;;;;;5001099;28;20177;-54
2023/03/25 05:08:34;;;;;;;3.90;2.23;;;;;;;;;;5002902;28;20190;-54
2023/03/25 05:11:01;;;;;;;2.47;1.53;;;;;;;;;;5001013;28;20297;-54
2023/03/25 05:13:27;;;;;;;2.70;1.80;;;;;;;;;;5001006;28;20652;-54
2023/03/25 05:15:53;;;;;;;2.80;1.93;;;;;;;;;;4999318;28;20196;-54
2023/03/25 05:18:20;;;;;;;3.47;2.13;;;;;;;;;;5000953;28;20191;-54
2023/03/25 05:20:49;;;;;;;3.63;1.97;;;;;;;;;;5000837;28;20724;-54
2023/03/25 05:23:16;;;;;;;3.93;3.67;;;;;;;;;;4999774;28;20191;-54
2023/03/25 05:25:43;;;;;;;2.20;1.43;;;;;;;;;;5000686;28;20273;-54
2023/03/25 05:28:12;;;;;;;3.00;1.60;;;;;;;;;;4998632;28;20236;-54
2023/03/25 05:30:40;;;;;;;2.40;1.60;;;;;;;;;;5001232;28;20339;-54
2023/03/25 05:33:06;;;;;;;4.13;2.63;;;;;;;;;;4996551;28;20690;-54
2023/03/25 05:35:32;;;;;;;2.80;2.20;;;;;;;;;;5000931;28;20282;-54
2023/03/25 05:37:58;;;;;;;4.43;1.57;;;;;;;;;;4997599;28;20205;-54
2023/03/25 05:40:25;;;;;;;4.93;1.60;;;;;;;;;;4998903;28;20171;-54
2023/03/25 05:42:53;;;;;;;4.63;1.60;;;;;;;;;;4999022;28;20664;-54
2023/03/25 05:45:19;;;;;;;1.60;1.50;;;;;;;;;;4996762;28;20182;-54
2023/03/25 05:47:45;;;;;;;3.60;2.00;;;;;;;;;;4999291;28;20182;-54
2023/03/25 05:50:13;;;;;;;2.23;1.97;;;;;;;;;;5002183;28;20174;-54
2023/03/25 05:52:40;;;;;;;4.47;2.97;;;;;;;;;;4996081;28;20566;-54
2023/03/25 05:55:07;;;;;;;2.97;1.37;;;;;;;;;;5000096;28;20321;-54
2023/03/25 05:57:33;;;;;;;4.00;1.57;;;;;;;;;;4999045;28;20650;-54
2023/03/25 05:59:59;;;;;;;5.70;2.17;;;;;;;;;;5000980;28;20290;-54
2023/03/25 06:02:26;;;;;;;2.87;2.00;;;;;;;;;;5012985;28;20200;-54
2023/03/25 06:04:52;;;;;;;2.97;1.87;;;;;;;;;;5001699;28;20639;-54
2023/03/25 06:07:21;;;;;;;3.00;1.80;;;;;;;;;;5000335;28;21762;-54
2023/03/25 06:09:48;;;;;;;3.47;1.40;;;;;;;;;;4999436;28;20195;-54
2023/03/25 06:12:18;;;;;;;4.30;1.70;;;;;;;;;;4998606;28;20230;-54
2023/03/25 06:14:45;;;;;;;3.10;1.53;;;;;;;;;;4999420;28;20650;-54
2023/03/25 06:17:17;;;;;;;3.83;1.60;;;;;;;;;;4998625;28;20585;-54
2023/03/25 06:19:44;;;;;;;3.20;1.50;;;;;;;;;;4996662;28;20553;-54
2023/03/25 06:22:11;;;;;;;4.67;1.93;;;;;;;;;;4963826;28;1080285;-54
2023/03/25 06:24:37;;;;;;;2.80;1.80;;;;;;;;;;4999313;28;20191;-54
2023/03/25 06:27:05;;;;;;;3.67;1.77;;;;;;;;;;5003276;28;20186;-54
2023/03/25 06:29:31;;;;;;;6.97;1.73;;;;;;;;;;5000824;28;20320;-54
2023/03/25 06:31:57;;;;;;;6.10;1.83;;;;;;;;;;5002408;28;20672;-54
2023/03/25 06:34:23;;;;;;;4.87;1.97;;;;;;;;;;4999559;28;20178;-54
2023/03/25 06:36:52;;;;;;;3.97;1.70;;;;;;;;;;5003613;28;20171;-54
2023/03/25 06:39:18;;;;;;;2.17;1.60;;;;;;;;;;4998213;28;20296;-54
2023/03/25 06:41:45;;;;;;;2.47;1.97;;;;;;;;;;4999598;28;20191;-54
2023/03/25 06:44:11;;;;;;;2.83;1.77;;;;;;;;;;4999129;28;20516;-54
2023/03/25 06:46:37;;;;;;;2.30;1.73;;;;;;;;;;4999367;28;20260;-54
2023/03/25 06:49:03;;;;;;;2.77;2.10;;;;;;;;;;5011363;28;20505;-54
2023/03/25 06:51:29;;;;;;;3.53;2.37;;;;;;;;;;5000553;28;20210;-54
2023/03/25 06:53:55;;;;;;;3.07;1.70;;;;;;;;;;5000346;28;20181;-54
2023/03/25 06:56:21;;;;;;;3.40;1.73;;;;;;;;;;4999194;28;20193;-54
2023/03/25 06:58:47;;;;;;;2.97;1.93;;;;;;;;;;5000872;28;20233;-54
2023/03/25 07:01:14;;;;;;;5.13;1.83;;;;;;;;;;5000257;28;20191;-54
2023/03/25 07:03:40;;;;;;;3.10;1.67;;;;;;;;;;4998532;28;20650;-54
2023/03/25 07:06:06;;;;;;;5.13;2.00;;;;;;;;;;4997160;28;20187;-54
2023/03/25 07:08:33;;;;;;;2.07;1.80;;;;;;;;;;5001640;28;20187;-54
2023/03/25 07:11:06;;;;;;;4.60;2.10;;;;;;;;;;4999130;28;20210;-55
2023/03/25 07:13:33;;;;;;;3.93;1.97;;;;;;;;;;4997899;28;20713;-55
2023/03/25 07:15:59;;;;;;;1.80;1.60;;;;;;;;;;4998439;28;20193;-55
2023/03/25 07:18:25;;;;;;;2.43;2.20;;;;;;;;;;4993056;28;20228;-54
2023/03/25 07:20:51;;;;;;;3.43;1.87;;;;;;;;;;4998243;28;20221;-55
2023/03/25 07:23:17;;;;;;;2.20;1.70;;;;;;;;;;5002641;28;20178;-54
2023/03/25 07:25:44;;;;;;;4.10;1.87;;;;;;;;;;4999426;28;20189;-54
2023/03/25 07:28:10;;;;;;;3.80;2.10;;;;;;;;;;5002853;28;20727;-54
2023/03/25 07:30:36;;;;;;;3.60;1.80;;;;;;;;;;4998539;28;20658;-55
2023/03/25 07:33:02;;;;;;;3.67;2.13;;;;;;;;;;4992285;28;20179;-55
2023/03/25 07:35:28;;;;;;;2.33;2.00;;;;;;;;;;4999558;28;20318;-54
2023/03/25 07:37:54;;;;;;;2.80;2.37;;;;;;;;;;5001123;28;20181;-55
2023/03/25 07:40:20;;;;;;;2.77;1.60;;;;;;;;;;4997144;28;20174;-55
2023/03/25 07:42:46;;;;;;;3.30;2.13;;;;;;;;;;4990705;28;20186;-54
2023/03/25 07:45:15;;;;;;;4.97;1.57;;;;;;;;;;4988466;28;20174;-55
2023/03/25 07:47:41;;;;;;;2.00;1.73;;;;;;;;;;5003298;28;20190;-55
2023/03/25 07:50:07;;;;;;;2.43;1.87;;;;;;;;;;5001041;28;20220;-54
2023/03/25 07:52:35;;;;;;;3.60;2.03;;;;;;;;;;5008556;28;20209;-54
2023/03/25 07:55:01;;;;;;;2.20;1.70;;;;;;;;;;5007370;28;20181;-54
2023/03/25 07:57:27;;;;;;;2.03;1.67;;;;;;;;;;5002814;28;20318;-55
2023/03/25 07:59:53;;;;;;;4.20;1.53;;;;;;;;;;5000730;28;20182;-54
2023/03/25 08:02:19;;;;;;;2.83;1.67;;;;;;;;;;4998843;28;20282;-54
2023/03/25 08:04:45;;;;;;;5.03;2.57;;;;;;;;;;5000149;28;20641;-54
2023/03/25 08:07:15;;;;;;;3.43;1.97;;;;;;;;;;5005086;28;20187;-54
2023/03/25 08:09:41;;;;;;;2.83;1.80;;;;;;;;;;5003041;28;20170;-54
2023/03/25 08:12:08;;;;;;;2.90;1.93;;;;;;;;;;5007002;28;20209;-54
2023/03/25 08:14:34;;;;;;;2.77;1.93;;;;;;;;;;5005671;28;20193;-54
2023/03/25 08:17:00;;;;;;;5.93;3.00;;;;;;;;;;5006633;28;20265;-54
2023/03/25 08:19:26;;;;;;;3.10;2.20;;;;;;;;;;5003804;28;20237;-54
2023/03/25 08:21:52;;;;;;;2.57;2.30;;;;;;;;;;5008817;28;20611;-54
2023/03/25 08:24:18;;;;;;;4.00;1.87;;;;;;;;;;5005921;28;20211;-54
2023/03/25 08:26:44;;;;;;;4.63;2.40;;;;;;;;;;5006758;28;20662;-54
2023/03/25 08:29:11;;;;;;;4.43;1.87;;;;;;;;;;5005114;28;20215;-54
2023/03/25 08:31:37;;;;;;;6.03;2.07;;;;;;;;;;5011353;28;20670;-54
2023/03/25 08:34:04;;;;;;;3.63;2.10;;;;;;;;;;5002363;28;20210;-53
2023/03/25 08:36:30;;;;;;;5.13;2.27;;;;;;;;;;5006378;28;20641;-54
2023/03/25 08:38:56;;;;;;;3.50;1.83;;;;;;;;;;5001206;28;20285;-54
2023/03/25 08:41:24;;;;;;;4.37;2.13;;;;;;;;;;5004886;28;20407;-54
2023/03/25 08:43:50;;;;;;;3.57;1.93;;;;;;;;;;4997287;28;20210;-53
2023/03/25 08:46:16;;;;;;;3.70;1.90;;;;;;;;;;4999029;28;20179;-54
2023/03/25 08:48:43;;;;;;;6.83;2.57;;;;;;;;;;5003438;28;20186;-53
2023/03/25 08:51:09;;;;;;;6.93;2.30;;;;;;;;;;5004444;28;20214;-54
2023/03/25 08:53:35;;;;;;;5.40;2.73;;;;;;;;;;5004712;28;20205;-54
2023/03/25 08:56:02;;;;;;;3.73;2.33;;;;;;;;;;5006987;28;20333;-54
2023/03/25 08:58:28;;;;;;;5.83;2.33;;;;;;;;;;5008210;28;20190;-54
2023/03/25 09:00:55;;;;;;;7.40;2.73;;;;;;;;;;5002778;28;20190;-53
2023/03/25 09:03:22;;;;;;;5.40;2.03;;;;;;;;;;5006507;28;20182;-53
2023/03/25 09:05:48;;;;;;;4.73;2.00;;;;;;;;;;5008212;28;20654;-53
2023/03/25 09:08:14;;;;;;;5.40;2.67;;;;;;;;;;5014004;28;20192;-53
2023/03/25 09:10:41;;;;;;;9.63;2.40;;;;;;;;;;5007644;28;20599;-54
2023/03/25 09:13:07;;;;;;;2.73;1.90;;;;;;;;;;5008652;28;20175;-54
2023/03/25 09:15:33;;;;;;;4.67;1.73;;;;;;;;;;5010550;28;20186;-53
2023/03/25 09:17:59;;;;;;;4.27;3.00;;;;;;;;;;5009929;28;20204;-54
2023/03/25 09:20:26;;;;;;;11.33;2.77;;;;;;;;;;5018487;28;20220;-56
2023/03/25 09:22:52;;;;;;;5.77;2.83;;;;;;;;;;5001577;28;20830;-53
2023/03/25 09:25:19;;;;;;;10.87;2.93;;;;;;;;;;5028661;28;20716;-52
2023/03/25 09:27:45;;;;;;;4.43;2.20;;;;;;;;;;5010436;28;20875;-53
2023/03/25 09:30:11;;;;;;;13.47;2.80;;;;;;;;;;5015597;28;20573;-53
2023/03/25 09:32:37;;;;;;;5.33;2.40;;;;;;;;;;5006441;28;20722;-54
2023/03/25 09:35:04;;;;;;;8.87;2.47;;;;;;;;;;5010628;28;20190;-53
2023/03/25 09:37:30;;;;;;;9.27;2.90;;;;;;;;;;5010931;28;20193;-53
2023/03/25 09:39:56;;;;;;;10.17;3.70;;;;;;;;;;5016045;28;20187;-53
2023/03/25 09:42:30;;;;;;;7.37;2.83;;;;;;;;;;5011021;28;20186;-55
2023/03/25 09:45:05;;;;;;;9.23;2.60;;;;;;;;;;5010287;28;20541;-53
2023/03/25 09:47:32;;;;;;;7.33;2.33;;;;;;;;;;5007822;28;20280;-53
2023/03/25 09:50:06;;;;;;;8.67;3.33;;;;;;;;;;5009160;28;20245;-53
2023/03/25 09:52:42;;;;;;;7.17;2.53;;;;;;;;;;5012339;28;20296;-55
2023/03/25 09:55:13;;;;;;;7.40;2.77;;;;;;;;;;5008448;28;20182;-54
2023/03/25 09:57:48;;;;;;;8.30;2.80;;;;;;;;;;5009994;28;20811;-53
2023/03/25 10:00:18;;;;;;;5.70;2.70;;;;;;;;;;5009280;28;20669;-53
2023/03/25 10:02:53;;;;;;;11.60;3.03;;;;;;;;;;5016555;28;20673;-53
2023/03/25 10:05:19;;;;;;;7.63;3.97;;;;;;;;;;5012775;28;20193;-53
2023/03/25 10:07:49;;;;;;;5.77;3.20;;;;;;;;;;5011103;28;20189;-55
2023/03/25 10:10:26;;;;;;;6.03;2.77;;;;;;;;;;5015591;28;20796;-53
2023/03/25 10:13:14;;;;;;;9.13;2.60;;;;;;;;;;5017715;28;20304;-54
2023/03/25 10:15:45;;;;;;;8.07;2.83;;;;;;;;;;5012689;28;20185;-54
2023/03/25 10:18:23;;;;;;;4.93;2.57;;;;;;;;;;5008749;28;20541;-54
2023/03/25 10:20:59;;;;;;;7.20;2.70;;;;;;;;;;5009025;28;20257;-53
2023/03/25 10:23:34;;;;;;;3.30;2.20;;;;;;;;;;5009791;28;20188;-53
2023/03/25 10:26:02;;;;;;;7.07;2.73;;;;;;;;;;5012565;28;20732;-54
2023/03/25 10:28:33;;;;;;;3.20;2.40;;;;;;;;;;5010017;28;20244;-53
2023/03/25 10:31:00;;;;;;;7.33;2.77;;;;;;;;;;5001539;28;20207;-53
2023/03/25 10:33:36;;;;;;;3.97;2.17;;;;;;;;;;5014470;28;20189;-53
2023/03/25 10:36:03;;;;;;;4.73;2.20;;;;;;;;;;5011160;28;20605;-54
2023/03/25 10:38:31;;;;;;;9.20;2.80;;;;;;;;;;5002141;28;20179;-54
2023/03/25 10:41:16;;;;;;;3.93;2.17;;;;;;;;;;5010370;28;20198;-54
2023/03/25 10:43:42;;;;;;;7.87;2.63;;;;;;;;;;5008580;28;20600;-55
2023/03/25 10:46:08;;;;;;;4.60;1.90;;;;;;;;;;5010353;28;20187;-53
2023/03/25 10:48:34;;;;;;;3.73;2.10;;;;;;;;;;5010279;28;20190;-53
2023/03/25 10:51:06;;;;;;;6.83;2.13;;;;;;;;;;5015652;28;20221;-56
2023/03/25 10:53:33;;;;;;;6.63;2.50;;;;;;;;;;5017888;28;20556;-53
2023/03/25 10:56:13;;;;;;;6.87;2.87;;;;;;;;;;5016953;28;20182;-53
2023/03/25 10:58:41;;;;;;;4.67;3.03;;;;;;;;;;5009338;28;20729;-53
2023/03/25 11:01:11;;;;;;;4.00;2.37;;;;;;;;;;5008409;28;20197;-53
2023/03/25 11:03:39;;;;;;;6.43;2.77;;;;;;;;;;5008286;28;20185;-53
2023/03/25 11:06:05;;;;;;;6.90;2.67;;;;;;;;;;5005575;28;20533;-53
2023/03/25 11:08:32;;;;;;;4.03;2.73;;;;;;;;;;5003394;28;20193;-53
2023/03/25 11:10:59;;;;;;;7.87;3.27;;;;;;;;;;5001960;28;20627;-53
2023/03/25 11:13:29;;;;;;;6.83;2.63;;;;;;;;;;5006656;28;20487;-53
2023/03/25 11:15:58;;;;;;;7.40;2.67;;;;;;;;;;5002850;28;20654;-54
2023/03/25 11:18:26;;;;;;;6.13;2.77;;;;;;;;;;5006548;28;20662;-53
2023/03/25 11:20:55;;;;;;;5.47;2.53;;;;;;;;;;5005356;28;20225;-53
2023/03/25 11:23:27;;;;;;;5.13;2.73;;;;;;;;;;5007004;28;20535;-53
2023/03/25 11:25:54;;;;;;;6.50;2.73;;;;;;;;;;5010088;28;20260;-53
2023/03/25 11:28:40;;;;;;;4.10;2.40;;;;;;;;;;5008083;28;20670;-53
2023/03/25 11:31:08;;;;;;;5.77;2.73;;;;;;;;;;5004560;28;20209;-53
2023/03/25 11:33:35;;;;;;;6.17;3.00;;;;;;;;;;5004827;28;20201;-53
2023/03/25 11:36:10;;;;;;;5.17;2.40;;;;;;;;;;5009872;28;20174;-53
2023/03/25 11:38:37;;;;;;;5.93;2.70;;;;;;;;;;5006567;28;20178;-53
2023/03/25 11:41:04;;;;;;;3.97;2.43;;;;;;;;;;5008137;28;20264;-53
2023/03/25 11:43:33;;;;;;;4.00;2.57;;;;;;;;;;5013189;28;20208;-53
2023/03/25 11:46:07;;;;;;;8.77;2.90;;;;;;;;;;5008686;28;20237;-53
2023/03/25 11:48:37;;;;;;;4.07;2.50;;;;;;;;;;5006640;28;20595;-53
2023/03/25 11:51:06;;;;;;;6.60;2.20;;;;;;;;;;5011887;28;20202;-53
2023/03/25 11:53:32;;;;;;;4.17;2.20;;;;;;;;;;5011543;28;20198;-53
2023/03/25 11:56:03;;;;;;;3.23;2.20;;;;;;;;;;5002038;28;20179;-55
2023/03/25 11:58:32;;;;;;;5.57;2.23;;;;;;;;;;5009026;28;20170;-55
2023/03/25 12:01:04;;;;;;;3.80;2.30;;;;;;;;;;5004610;28;20195;-54
2023/03/25 12:03:31;;;;;;;6.17;2.13;;;;;;;;;;5007725;28;20236;-54
2023/03/25 12:05:58;;;;;;;5.73;2.27;;;;;;;;;;5008508;28;20186;-55
2023/03/25 12:08:28;;;;;;;7.17;2.40;;;;;;;;;;4994329;28;20612;-54
2023/03/25 12:10:59;;;;;;;4.20;2.40;;;;;;;;;;4989473;28;20230;-54
2023/03/25 12:13:28;;;;;;;4.40;2.00;;;;;;;;;;5003518;28;20182;-55
2023/03/25 12:16:01;;;;;;;3.70;2.03;;;;;;;;;;5002421;28;20185;-55
2023/03/25 12:18:27;;;;;;;5.23;2.50;;;;;;;;;;5004359;28;20186;-55
2023/03/25 12:21:06;;;;;;;2.57;2.03;;;;;;;;;;5009847;28;20237;-56
2023/03/25 12:23:40;;;;;;;6.97;2.60;;;;;;;;;;5001764;28;20190;-54
2023/03/25 12:26:15;;;;;;;3.37;1.97;;;;;;;;;;5005576;28;20233;-55
2023/03/25 12:28:59;;;;;;;3.77;1.73;;;;;;;;;;5007911;28;20845;-55
2023/03/25 12:31:32;;;;;;;6.10;2.00;;;;;;;;;;5007601;28;20214;-55
2023/03/25 12:34:20;;;;;;;5.47;2.20;;;;;;;;;;5002800;28;20202;-55
2023/03/25 12:36:58;;;;;;;4.67;2.00;;;;;;;;;;5003541;28;20194;-55
2023/03/25 12:39:33;;;;;;;6.17;2.03;;;;;;;;;;5008131;28;20197;-55
2023/03/25 12:42:04;;;;;;;5.07;2.20;;;;;;;;;;4999402;28;20656;-55
2023/03/25 12:44:49;;;;;;;5.70;2.90;;;;;;;;;;4999077;28;20186;-55
2023/03/25 12:47:30;;;;;;;3.40;1.87;;;;;;;;;;5010063;28;20706;-55
2023/03/25 12:49:59;;;;;;;4.77;2.53;;;;;;;;;;5003910;28;20221;-53
2023/03/25 12:52:35;;;;;;;4.20;2.40;;;;;;;;;;5003232;28;20712;-53
2023/03/25 12:55:07;;;;;;;6.50;2.63;;;;;;;;;;5010190;28;20185;-53
2023/03/25 12:57:36;;;;;;;5.90;3.33;;;;;;;;;;5010968;28;20646;-53
2023/03/25 13:00:21;;;;;;;6.77;2.83;;;;;;;;;;5011668;28;20182;-54
2023/03/25 13:02:57;;;;;;;9.47;3.07;;;;;;;;;;5004919;28;20202;-54
2023/03/25 13:05:41;;;;;;;6.77;3.27;;;;;;;;;;5002733;28;20178;-53
2023/03/25 13:08:12;;;;;;;7.10;3.37;;;;;;;;;;4999745;28;20438;-54
2023/03/25 13:10:39;;;;;;;10.00;3.38;;;;;;;;;;5004883;28;20521;-54
2023/03/25 13:13:25;;;;;;;8.87;2.73;;;;;;;;;;5009330;28;20275;-53
2023/03/25 13:16:15;;;;;;;4.37;2.20;;;;;;;;;;5004991;28;20182;-53
2023/03/25 13:18:45;;;;;;;3.87;2.43;;;;;;;;;;4990431;28;20520;-53
2023/03/25 13:21:20;;;;;;;6.97;3.27;;;;;;;;;;4998086;28;20229;-54
2023/03/25 13:23:48;;;;;;;4.40;2.10;;;;;;;;;;4997712;28;20179;-54
2023/03/25 13:26:18;;;;;;;3.23;1.57;;;;;;;;;;5004692;28;20185;-57
2023/03/25 13:28:46;;;;;;;4.80;2.13;;;;;;;;;;4996319;28;20184;-54
2023/03/25 13:31:20;;;;;;;6.47;2.30;;;;;;;;;;4999853;28;20217;-54
2023/03/25 13:33:50;;;;;;;5.67;2.30;;;;;;;;;;5001290;28;20638;-54
2023/03/25 13:36:43;;;;;;;4.67;1.87;;;;;;;;;;5007713;28;20179;-54
2023/03/25 13:39:13;;;;;;;5.33;1.80;;;;;;;;;;5000889;28;20573;-54
2023/03/25 13:41:39;;;;;;;4.13;1.77;;;;;;;;;;5000727;28;20205;-54
2023/03/25 13:44:12;;;;;;;4.20;1.80;;;;;;;;;;4998011;28;20216;-54
2023/03/25 13:46:43;;;;;;;5.40;1.97;;;;;;;;;;5000716;28;20278;-54
2023/03/25 13:49:20;;;;;;;4.27;2.20;;;;;;;;;;4998299;28;20190;-54
2023/03/25 13:51:46;;;;;;;4.97;2.00;;;;;;;;;;5002226;28;20202;-54
2023/03/25 13:54:31;;;;;;;2.37;2.00;;;;;;;;;;4998825;28;20187;-53
2023/03/25 13:57:16;;;;;;;3.23;1.80;;;;;;;;;;4998493;28;20182;-53
2023/03/25 13:59:57;;;;;;;3.20;1.70;;;;;;;;;;5002176;28;20213;-53
2023/03/25 14:02:30;;;;;;;3.17;1.80;;;;;;;;;;5002393;28;20178;-53
2023/03/25 14:04:59;;;;;;;4.70;1.93;;;;;;;;;;4997948;28;20193;-53
2023/03/25 14:07:34;;;;;;;4.77;2.80;;;;;;;;;;4999516;28;20601;-51
2023/03/25 14:10:00;;;;;;;5.83;2.03;;;;;;;;;;5000916;28;20279;-51
2023/03/25 14:12:46;;;;;;;6.97;2.60;;;;;;;;;;5007903;28;20718;-51
2023/03/25 14:15:22;;;;;;;7.17;3.80;;;;;;;;;;5003229;28;20183;-51
2023/03/25 14:17:49;;;;;;;4.23;1.93;;;;;;;;;;4995893;28;20181;-51
2023/03/25 14:20:23;;;;;;;5.00;2.20;;;;;;;;;;5001505;28;20702;-51
2023/03/25 14:22:54;;;;;;;4.17;2.10;;;;;;;;;;4999827;28;20543;-51
2023/03/25 14:25:33;;;;;;;6.30;3.07;;;;;;;;;;4997840;28;20725;-52
2023/03/25 14:28:01;;;;;;;7.03;2.90;;;;;;;;;;5004125;28;20257;-51
2023/03/25 14:30:28;;;;;;;5.70;2.10;;;;;;;;;;5004828;28;20186;-51
2023/03/25 14:32:55;;;;;;;1.97;1.60;;;;;;;;;;4998355;28;20293;-51
2023/03/25 14:35:33;;;;;;;4.97;1.93;;;;;;;;;;5001670;28;20185;-50
2023/03/25 14:38:08;;;;;;;1.77;1.37;;;;;;;;;;5000807;28;20186;-51
2023/03/25 14:40:45;;;;;;;5.87;1.80;;;;;;;;;;4997499;28;20185;-53
2023/03/25 14:43:31;;;;;;;2.53;2.20;;;;;;;;;;5001173;28;20182;-53
2023/03/25 14:46:17;;;;;;;3.67;1.50;;;;;;;;;;5004546;28;20175;-52
2023/03/25 14:48:50;;;;;;;2.40;1.70;;;;;;;;;;5000290;28;20202;-53
2023/03/25 14:51:19;;;;;;;3.17;2.07;;;;;;;;;;5001168;28;20565;-52
2023/03/25 14:53:52;;;;;;;3.37;1.57;;;;;;;;;;4998834;28;20308;-53
2023/03/25 14:56:21;;;;;;;3.00;1.80;;;;;;;;;;4999898;28;20182;-53
2023/03/25 14:58:50;;;;;;;5.03;1.90;;;;;;;;;;5000802;28;20632;-53